createdAt,value
2022-10-06T00:01:38.968Z,22
2022-10-06T00:04:10.049Z,21
2022-10-06T00:06:43.056Z,24
2022-10-06T00:09:14.427Z,24
2022-10-06T00:11:45.389Z,24
2022-10-06T00:14:17.572Z,24
2022-10-06T00:16:48.937Z,24
2022-10-06T00:19:25.662Z,22
2022-10-06T00:21:57.960Z,23
2022-10-06T00:24:29.592Z,20
2022-10-06T00:27:01.083Z,21
2022-10-06T00:29:32.390Z,20
2022-10-06T00:32:07.201Z,23
2022-10-06T00:34:40.587Z,24
2022-10-06T00:37:11.838Z,24
2022-10-06T00:39:44.180Z,20
2022-10-06T00:42:15.836Z,21
2022-10-06T00:44:48.829Z,20
2022-10-06T00:47:21.862Z,21
2022-10-06T00:49:54.236Z,23
2022-10-06T00:52:25.689Z,21
2022-10-06T00:54:56.715Z,24
2022-10-06T00:57:27.993Z,20
2022-10-06T00:59:59.426Z,20
2022-10-06T01:02:30.945Z,24
2022-10-06T01:05:03.061Z,20
2022-10-06T01:07:34.508Z,24
2022-10-06T01:10:05.708Z,20
2022-10-06T01:12:37.257Z,24
2022-10-06T01:15:08.956Z,24
2022-10-06T01:17:42.743Z,23
2022-10-06T01:20:13.897Z,24
2022-10-06T01:22:47.278Z,24
2022-10-06T01:25:20.515Z,24
2022-10-06T01:27:53.614Z,24
2022-10-06T01:30:26.281Z,24
2022-10-06T01:32:57.957Z,24
2022-10-06T01:35:30.417Z,24
2022-10-06T01:38:01.741Z,24
2022-10-06T01:40:34.355Z,24
2022-10-06T01:43:05.969Z,24
2022-10-06T01:45:36.909Z,24
2022-10-06T01:48:08.565Z,24
2022-10-06T01:50:39.836Z,28
2022-10-06T01:53:11.454Z,24
2022-10-06T01:55:42.715Z,32
2022-10-06T01:58:13.999Z,28
2022-10-06T02:00:45.305Z,28
2022-10-06T02:03:16.798Z,25
2022-10-06T02:05:48.033Z,24
2022-10-06T02:08:19.325Z,24
2022-10-06T02:10:51.461Z,24
2022-10-06T02:13:21.432Z,22
2022-10-06T02:15:52.402Z,24
2022-10-06T02:18:25.838Z,24
2022-10-06T02:20:56.710Z,24
2022-10-06T02:23:28.035Z,24
2022-10-06T02:26:00.632Z,20
2022-10-06T02:28:32.402Z,24
2022-10-06T02:31:02.823Z,24
2022-10-06T02:33:34.978Z,20
2022-10-06T02:36:07.874Z,24
2022-10-06T02:38:39.388Z,20
2022-10-06T02:41:10.591Z,24
2022-10-06T02:43:41.631Z,20
2022-10-06T02:46:15.095Z,24
2022-10-06T02:48:45.872Z,24
2022-10-06T02:51:16.813Z,24
2022-10-06T02:53:47.804Z,23
2022-10-06T02:56:20.588Z,24
2022-10-06T02:58:53.205Z,22
2022-10-06T03:01:24.237Z,24
2022-10-06T03:03:55.851Z,24
2022-10-06T03:06:27.765Z,24
2022-10-06T03:08:57.237Z,24
2022-10-06T03:11:28.093Z,21
2022-10-06T03:13:58.768Z,23
2022-10-06T03:16:30.621Z,20
2022-10-06T03:19:02.117Z,24
2022-10-06T03:21:32.936Z,22
2022-10-06T03:24:05.595Z,24
2022-10-06T03:26:36.891Z,24
2022-10-06T03:29:11.446Z,22
2022-10-06T03:31:40.310Z,21
2022-10-06T03:34:12.811Z,24
2022-10-06T03:36:43.729Z,24
2022-10-06T03:39:15.408Z,24
2022-10-06T03:41:48.020Z,20
2022-10-06T03:44:21.660Z,24
2022-10-06T03:46:52.643Z,23
2022-10-06T03:49:27.103Z,24
2022-10-06T03:52:00.770Z,24
2022-10-06T03:54:31.554Z,24
2022-10-06T03:57:04.723Z,25
2022-10-06T03:59:41.627Z,28
2022-10-06T04:02:13.027Z,27
2022-10-06T04:04:44.341Z,24
2022-10-06T04:07:15.705Z,24
2022-10-06T04:09:47.900Z,24
2022-10-06T04:12:18.921Z,24
2022-10-06T04:14:50.443Z,28
2022-10-06T04:17:21.374Z,28
2022-10-06T04:19:52.581Z,24
2022-10-06T04:22:24.237Z,24
2022-10-06T04:24:55.485Z,28
2022-10-06T04:27:26.643Z,28
2022-10-06T04:29:58.263Z,29
2022-10-06T04:32:29.488Z,27
2022-10-06T04:35:00.283Z,28
2022-10-06T04:37:31.092Z,27
2022-10-06T04:40:04.877Z,24
2022-10-06T04:42:37.424Z,24
2022-10-06T04:45:10.165Z,24
2022-10-06T04:47:42.471Z,28
2022-10-06T04:50:14.997Z,28
2022-10-06T04:52:45.786Z,24
2022-10-06T04:55:16.788Z,28
2022-10-06T04:57:48.978Z,30
2022-10-06T05:00:21.316Z,28
2022-10-06T05:02:52.335Z,28
2022-10-06T05:05:23.098Z,28
2022-10-06T05:07:53.866Z,27
2022-10-06T05:10:24.526Z,24
2022-10-06T05:12:55.707Z,28
2022-10-06T05:15:29.002Z,31
2022-10-06T05:18:00.344Z,28
2022-10-06T05:20:32.164Z,28
2022-10-06T05:23:03.972Z,28
2022-10-06T05:25:35.673Z,32
2022-10-06T05:28:06.855Z,25
2022-10-06T05:30:38.791Z,27
2022-10-06T05:33:10.418Z,24
2022-10-06T05:35:43.495Z,28
2022-10-06T05:38:14.417Z,26
2022-10-06T05:40:45.950Z,28
2022-10-06T05:43:17.236Z,28
2022-10-06T05:45:48.133Z,28
2022-10-06T05:48:19.562Z,28
2022-10-06T05:50:50.793Z,28
2022-10-06T05:53:22.528Z,32
2022-10-06T05:55:53.632Z,30
2022-10-06T05:58:24.857Z,28
2022-10-06T06:00:57.702Z,28
2022-10-06T06:03:28.884Z,30
2022-10-06T06:06:01.865Z,28
2022-10-06T06:08:34.324Z,28
2022-10-06T06:11:05.583Z,28
2022-10-06T06:13:37.004Z,30
2022-10-06T06:16:08.063Z,32
2022-10-06T06:18:38.885Z,32
2022-10-06T06:21:11.572Z,32
2022-10-06T06:23:42.882Z,29
2022-10-06T06:26:13.812Z,32
2022-10-06T06:28:44.383Z,28
2022-10-06T06:31:19.828Z,28
2022-10-06T06:33:47.132Z,28
2022-10-06T06:36:19.826Z,31
2022-10-06T06:38:50.498Z,28
2022-10-06T06:41:23.441Z,28
2022-10-06T06:43:59.590Z,30
2022-10-06T06:46:31.003Z,32
2022-10-06T06:49:03.975Z,29
2022-10-06T06:51:35.545Z,28
2022-10-06T06:54:06.676Z,29
2022-10-06T06:56:36.989Z,28
2022-10-06T06:59:08.615Z,28
2022-10-06T07:01:39.902Z,32
2022-10-06T07:04:12.195Z,32
2022-10-06T07:06:43.401Z,28
2022-10-06T07:09:16.183Z,24
2022-10-06T07:11:48.005Z,25
2022-10-06T07:14:17.340Z,31
2022-10-06T07:16:47.936Z,32
2022-10-06T07:19:22.545Z,31
2022-10-06T07:21:49.979Z,28
2022-10-06T07:24:22.030Z,28
2022-10-06T07:26:53.197Z,31
2022-10-06T07:29:23.765Z,31
2022-10-06T07:31:55.835Z,32
2022-10-06T07:34:26.524Z,28
2022-10-06T07:36:57.061Z,32
2022-10-06T07:39:28.007Z,28
2022-10-06T07:41:58.823Z,28
2022-10-06T07:44:29.614Z,28
2022-10-06T07:47:02.106Z,28
2022-10-06T07:49:33.068Z,31
2022-10-06T07:52:04.428Z,29
2022-10-06T07:54:37.467Z,28
2022-10-06T07:57:08.726Z,28
2022-10-06T07:59:39.477Z,24
2022-10-06T08:02:10.672Z,28
2022-10-06T08:04:43.327Z,28
2022-10-06T08:07:14.700Z,21
2022-10-06T08:09:45.993Z,24
2022-10-06T08:12:19.042Z,21
2022-10-06T08:14:53.773Z,21
2022-10-06T08:17:24.188Z,20
2022-10-06T08:19:54.506Z,20
2022-10-06T08:22:28.290Z,20
2022-10-06T08:25:06.014Z,16
2022-10-06T08:27:32.984Z,20
2022-10-06T08:30:04.803Z,19
2022-10-06T08:32:35.646Z,16
2022-10-06T08:35:06.944Z,16
2022-10-06T08:37:41.971Z,16
2022-10-06T08:40:15.282Z,18
2022-10-06T08:42:46.551Z,17
2022-10-06T08:45:16.796Z,16
2022-10-06T08:47:47.780Z,17
2022-10-06T08:50:18.368Z,16
2022-10-06T08:52:48.763Z,16
2022-10-06T08:55:21.222Z,16
2022-10-06T08:57:52.771Z,19
2022-10-06T09:00:24.083Z,19
2022-10-06T09:02:55.942Z,13
2022-10-06T09:05:30.436Z,18
2022-10-06T09:08:01.401Z,16
2022-10-06T09:10:33.164Z,16
2022-10-06T09:13:04.266Z,16
2022-10-06T09:15:36.296Z,16
2022-10-06T09:18:07.278Z,18
2022-10-06T09:20:41.883Z,17
2022-10-06T09:23:14.803Z,16
2022-10-06T09:25:46.602Z,16
2022-10-06T09:28:19.337Z,16
2022-10-06T09:30:53.213Z,16
2022-10-06T09:33:20.279Z,16
2022-10-06T09:35:52.157Z,16
2022-10-06T09:38:24.502Z,19
2022-10-06T09:40:55.290Z,18
2022-10-06T09:43:28.011Z,20
2022-10-06T09:45:59.812Z,18
2022-10-06T09:48:30.520Z,22
2022-10-06T09:51:01.604Z,20
2022-10-06T09:53:36.835Z,20
2022-10-06T09:56:04.870Z,20
2022-10-06T09:58:34.452Z,20
2022-10-06T10:01:05.422Z,19
2022-10-06T10:03:36.663Z,19
2022-10-06T10:06:06.569Z,18
2022-10-06T10:08:37.577Z,20
2022-10-06T10:11:09.598Z,20
2022-10-06T10:13:42.755Z,20
2022-10-06T10:16:13.394Z,20
2022-10-06T10:18:44.305Z,20
2022-10-06T10:21:15.284Z,20
2022-10-06T10:23:45.667Z,20
2022-10-06T10:26:16.179Z,20
2022-10-06T10:28:47.295Z,20
2022-10-06T10:31:19.875Z,20
2022-10-06T10:33:59.153Z,17
2022-10-06T10:36:25.381Z,20
2022-10-06T10:38:54.640Z,18
2022-10-06T10:41:24.307Z,20
2022-10-06T10:43:55.357Z,38
2022-10-06T10:46:26.918Z,20
2022-10-06T10:48:58.809Z,24
2022-10-06T10:51:29.476Z,16
2022-10-06T10:54:00.260Z,20
2022-10-06T10:56:30.974Z,20
2022-10-06T10:59:01.794Z,18
2022-10-06T11:01:33.897Z,16
2022-10-06T11:04:08.236Z,20
2022-10-06T11:06:39.778Z,20
2022-10-06T11:09:11.748Z,18
2022-10-06T11:11:43.092Z,20
2022-10-06T11:14:13.682Z,20
2022-10-06T11:16:49.576Z,20
2022-10-06T11:19:20.107Z,16
2022-10-06T11:21:51.545Z,24
2022-10-06T11:24:25.665Z,20
2022-10-06T11:26:55.899Z,20
2022-10-06T11:29:26.665Z,20
2022-10-06T11:32:00.275Z,20
2022-10-06T11:34:31.488Z,20
2022-10-06T11:37:00.672Z,20
2022-10-06T11:39:33.669Z,20
2022-10-06T11:42:05.298Z,23
2022-10-06T11:44:37.256Z,20
2022-10-06T11:47:07.980Z,20
2022-10-06T11:49:39.198Z,20
2022-10-06T11:52:11.077Z,24
2022-10-06T11:54:43.240Z,22
2022-10-06T11:57:16.001Z,24
2022-10-06T11:59:46.721Z,21
2022-10-06T12:02:23.221Z,20
2022-10-06T12:04:53.696Z,21
2022-10-06T12:07:24.606Z,20
2022-10-06T12:09:56.913Z,21
2022-10-06T12:12:28.802Z,20
2022-10-06T12:16:54.788Z,20
2022-10-06T12:17:30.342Z,20
2022-10-06T12:20:01.169Z,20
2022-10-06T12:22:32.464Z,16
2022-10-06T12:25:03.043Z,19
2022-10-06T12:27:33.708Z,19
2022-10-06T12:30:08.774Z,16
2022-10-06T12:32:40.003Z,16
2022-10-06T12:35:10.836Z,16
2022-10-06T12:37:40.510Z,18
2022-10-06T12:40:11.538Z,20
2022-10-06T12:42:42.935Z,19
2022-10-06T12:45:13.705Z,16
2022-10-06T12:47:47.448Z,13
2022-10-06T12:50:19.300Z,13
2022-10-06T12:52:50.095Z,15
2022-10-06T12:55:23.995Z,16
2022-10-06T12:57:55.648Z,16
2022-10-06T13:00:29.476Z,15
2022-10-06T13:03:00.050Z,16
2022-10-06T13:05:33.098Z,16
2022-10-06T13:08:04.270Z,16
2022-10-06T13:10:38.069Z,16
2022-10-06T13:13:10.686Z,16
2022-10-06T13:15:45.242Z,16
2022-10-06T13:18:16.381Z,16
2022-10-06T13:20:46.889Z,16
2022-10-06T13:23:22.102Z,16
2022-10-06T13:25:52.850Z,16
2022-10-06T13:28:23.790Z,24
2022-10-06T13:30:54.333Z,20
2022-10-06T13:36:06.047Z,19
2022-10-06T13:38:38.220Z,20
2022-10-06T13:41:17.137Z,19
2022-10-06T13:43:49.083Z,19
2022-10-06T13:46:21.920Z,19
2022-10-06T13:48:59.747Z,17
2022-10-06T13:51:30.520Z,16
2022-10-06T13:54:07.631Z,16
2022-10-06T13:56:38.544Z,20
2022-10-06T13:59:11.756Z,16
2022-10-06T14:01:43.749Z,16
2022-10-06T14:04:15.679Z,16
2022-10-06T14:06:47.186Z,12
2022-10-06T14:09:23.334Z,16
2022-10-06T14:11:54.544Z,14
2022-10-06T14:14:24.520Z,12
2022-10-06T14:16:58.073Z,12
2022-10-06T14:19:29.583Z,12
2022-10-06T14:22:00.208Z,12
2022-10-06T14:24:31.380Z,12
2022-10-06T14:27:02.660Z,11
2022-10-06T14:29:33.439Z,8
2022-10-06T14:32:10.181Z,12
2022-10-06T14:34:43.636Z,12
2022-10-06T14:37:15.538Z,12
2022-10-06T14:39:47.774Z,12
2022-10-06T14:42:19.054Z,12
2022-10-06T14:44:48.484Z,12
2022-10-06T14:47:19.207Z,12
2022-10-06T14:49:49.699Z,11
2022-10-06T14:52:21.303Z,8
2022-10-06T14:54:54.605Z,12
2022-10-06T14:57:26.891Z,12
2022-10-06T14:59:58.036Z,12
2022-10-06T15:02:30.646Z,16
2022-10-06T15:05:02.019Z,12
2022-10-06T15:07:31.159Z,12
2022-10-06T15:10:04.128Z,12
2022-10-06T15:12:35.873Z,10
2022-10-06T15:15:06.151Z,12
2022-10-06T15:17:38.709Z,8
2022-10-06T15:20:09.507Z,12
2022-10-06T15:22:40.623Z,11
2022-10-06T15:25:13.098Z,8
2022-10-06T15:27:44.737Z,8
2022-10-06T15:30:15.921Z,8
2022-10-06T15:32:47.603Z,8
2022-10-06T15:35:18.475Z,11
2022-10-06T15:37:51.400Z,9
2022-10-06T15:40:23.527Z,8
2022-10-06T15:42:56.078Z,8
2022-10-06T15:45:29.243Z,8
2022-10-06T15:47:59.637Z,12
2022-10-06T15:50:32.941Z,12
2022-10-06T15:53:04.721Z,12
2022-10-06T15:55:38.555Z,12
2022-10-06T15:58:07.775Z,12
2022-10-06T16:00:39.315Z,12
2022-10-06T16:03:11.536Z,12
2022-10-06T16:05:43.409Z,12
2022-10-06T16:08:15.652Z,12
2022-10-06T16:10:49.308Z,12
2022-10-06T16:13:19.746Z,16
2022-10-06T16:15:51.951Z,16
2022-10-06T16:18:22.906Z,19
2022-10-06T16:21:00.474Z,20
2022-10-06T16:23:32.874Z,24
2022-10-06T16:26:11.424Z,32
2022-10-06T16:31:17.376Z,29
2022-10-06T16:33:49.726Z,28
2022-10-06T16:36:22.113Z,20
2022-10-06T16:38:54.161Z,16
2022-10-06T16:41:32.303Z,91
2022-10-06T16:44:03.830Z,28
2022-10-06T16:46:35.787Z,24
2022-10-06T16:49:08.477Z,20
2022-10-06T16:51:40.585Z,28
2022-10-06T16:54:11.593Z,31
2022-10-06T16:56:45.606Z,32
2022-10-06T16:59:19.243Z,54
2022-10-06T17:01:51.083Z,64
2022-10-06T17:04:22.773Z,66
2022-10-06T17:06:53.867Z,28
2022-10-06T17:09:30.233Z,24
2022-10-06T17:12:01.733Z,28
2022-10-06T17:14:34.092Z,28
2022-10-06T17:17:07.771Z,28
2022-10-06T17:19:40.236Z,32
2022-10-06T17:22:11.373Z,36
2022-10-06T17:24:43.393Z,36
2022-10-06T17:29:55.378Z,35
2022-10-06T17:32:26.700Z,36
2022-10-06T17:34:59.076Z,33
2022-10-06T17:37:30.011Z,36
2022-10-06T17:40:05.987Z,32
2022-10-06T17:42:41.963Z,34
2022-10-06T17:45:16.566Z,32
2022-10-06T17:47:48.024Z,32
2022-10-06T17:50:19.599Z,31
2022-10-06T17:52:51.099Z,32
2022-10-06T17:55:24.144Z,29
2022-10-06T17:57:55.348Z,28
2022-10-06T18:00:28.537Z,28
2022-10-06T18:02:59.975Z,28
2022-10-06T18:05:33.307Z,28
2022-10-06T18:08:04.375Z,25
2022-10-06T18:10:35.989Z,28
2022-10-06T18:13:10.562Z,29
2022-10-06T18:15:43.208Z,30
2022-10-06T18:18:16.373Z,32
2022-10-06T18:20:47.525Z,32
2022-10-06T18:23:18.608Z,32
2022-10-06T18:25:52.549Z,36
2022-10-06T18:28:23.992Z,32
2022-10-06T18:30:55.203Z,32
2022-10-06T18:36:09.586Z,37
2022-10-06T18:36:14.504Z,32
2022-10-06T18:38:44.250Z,33
2022-10-06T18:41:16.879Z,36
2022-10-06T18:43:49.913Z,36
2022-10-06T18:46:22.251Z,34
2022-10-06T18:48:59.100Z,32
2022-10-06T18:51:30.431Z,33
2022-10-06T18:54:02.818Z,32
2022-10-06T18:56:32.409Z,32
2022-10-06T18:59:03.793Z,37
2022-10-06T19:01:36.986Z,39
2022-10-06T19:04:15.139Z,36
2022-10-06T19:06:47.369Z,35
2022-10-06T19:09:18.624Z,40
2022-10-06T19:11:49.312Z,38
2022-10-06T19:14:21.185Z,36
2022-10-06T19:16:56.699Z,36
2022-10-06T19:19:29.388Z,33
2022-10-06T19:21:59.124Z,35
2022-10-06T19:24:30.366Z,32
2022-10-06T19:27:01.699Z,34
2022-10-06T19:29:32.782Z,33
2022-10-06T19:32:07.008Z,32
2022-10-06T19:34:39.466Z,35
2022-10-06T19:37:11.802Z,32
2022-10-06T19:42:23.692Z,32
2022-10-06T19:44:54.770Z,34
2022-10-06T19:47:38.073Z,33
2022-10-06T19:50:10.686Z,32
2022-10-06T19:52:38.927Z,34
2022-10-06T19:55:10.387Z,33
2022-10-06T19:57:43.994Z,36
2022-10-06T20:00:24.665Z,32
2022-10-06T20:02:56.755Z,36
2022-10-06T20:05:29.295Z,36
2022-10-06T20:08:04.784Z,32
2022-10-06T20:10:36.808Z,32
2022-10-06T20:13:07.824Z,32
2022-10-06T20:20:54.361Z,32
2022-10-06T20:23:25.565Z,36
2022-10-06T20:25:56.379Z,36
2022-10-06T20:28:28.127Z,36
2022-10-06T20:30:59.537Z,36
2022-10-06T20:33:30.925Z,36
2022-10-06T20:36:02.663Z,32
2022-10-06T20:38:38.459Z,32
2022-10-06T20:41:09.971Z,32
2022-10-06T20:43:39.716Z,32
2022-10-06T20:46:09.322Z,32
2022-10-06T20:48:40.845Z,28
2022-10-06T20:51:10.766Z,32
2022-10-06T20:53:43.190Z,32
2022-10-06T20:56:13.763Z,32
2022-10-06T20:58:45.753Z,36
2022-10-06T21:01:26.968Z,32
2022-10-06T21:03:58.036Z,29
2022-10-06T21:06:35.061Z,32
2022-10-06T21:11:52.248Z,32
2022-10-06T21:14:25.707Z,28
2022-10-06T21:16:55.363Z,32
2022-10-06T21:19:26.340Z,32
2022-10-06T21:21:59.431Z,32
2022-10-06T21:24:31.028Z,36
2022-10-06T21:27:02.546Z,32
2022-10-06T21:29:33.735Z,32
2022-10-06T21:32:03.673Z,35
2022-10-06T21:34:35.083Z,36
2022-10-06T21:37:14.393Z,34
2022-10-06T21:39:45.463Z,33
2022-10-06T21:42:19.098Z,33
2022-10-06T21:44:51.050Z,32
2022-10-06T21:47:22.962Z,32
2022-10-06T21:49:53.828Z,32
2022-10-06T21:52:24.591Z,35
2022-10-06T21:54:55.809Z,36
2022-10-06T21:57:28.368Z,32
2022-10-06T21:59:59.525Z,33
2022-10-06T22:02:36.768Z,33
2022-10-06T22:05:09.165Z,33
2022-10-06T22:07:39.639Z,34
2022-10-06T22:10:10.960Z,32
2022-10-06T22:12:42.704Z,32
2022-10-06T22:15:15.361Z,33
2022-10-06T22:17:46.642Z,33
2022-10-06T22:20:21.316Z,33
2022-10-06T22:22:54.398Z,32
2022-10-06T22:28:04.152Z,32
2022-10-06T22:30:33.039Z,32
2022-10-06T22:33:03.037Z,31
2022-10-06T22:35:33.808Z,32
2022-10-06T22:38:04.984Z,32
2022-10-06T22:40:36.465Z,32
2022-10-06T22:43:07.931Z,36
2022-10-06T22:45:38.572Z,36
2022-10-06T22:48:09.130Z,36
2022-10-06T22:50:39.900Z,36
2022-10-06T22:53:10.579Z,36
2022-10-06T22:55:42.680Z,36
2022-10-06T22:58:13.647Z,36
2022-10-06T23:00:49.768Z,36
2022-10-06T23:03:21.363Z,33
2022-10-06T23:05:51.756Z,36
2022-10-06T23:08:24.701Z,33
2022-10-06T23:10:56.351Z,32
2022-10-06T23:13:30.726Z,32
2022-10-06T23:16:07.483Z,32
2022-10-06T23:18:36.079Z,32
2022-10-06T23:21:13.782Z,32
2022-10-06T23:23:44.636Z,32
2022-10-06T23:26:15.340Z,28
2022-10-06T23:28:46.162Z,32
2022-10-06T23:31:16.940Z,32
2022-10-06T23:33:47.410Z,32
2022-10-06T23:36:19.144Z,32
2022-10-06T23:38:49.812Z,29
2022-10-06T23:41:20.901Z,29
2022-10-06T23:43:51.293Z,32
2022-10-06T23:46:22.308Z,32
2022-10-06T23:48:52.977Z,32
2022-10-06T23:51:24.980Z,32
2022-10-06T23:53:57.563Z,32
2022-10-06T23:56:27.905Z,32
2022-10-06T23:58:57.059Z,32
